createdAt,value
2022-11-10T00:02:34.188Z,2.40
2022-11-10T00:05:21.322Z,2.03
2022-11-10T00:08:09.992Z,1.65
2022-11-10T00:11:01.514Z,1.40
2022-11-10T00:14:07.293Z,1.10
2022-11-10T00:17:04.689Z,1.58
2022-11-10T00:19:51.506Z,1.00
2022-11-10T00:22:39.807Z,0.70
2022-11-10T00:25:27.051Z,0.60
2022-11-10T00:28:13.928Z,0.60
2022-11-10T00:31:06.956Z,0.50
2022-11-10T00:33:54.034Z,0.60
2022-11-10T00:36:41.082Z,0.50
2022-11-10T00:39:28.288Z,0.50
2022-11-10T00:42:15.029Z,0.50
2022-11-10T00:45:01.762Z,0.60
2022-11-10T00:47:50.218Z,0.40
2022-11-10T00:50:36.887Z,0.30
2022-11-10T00:53:23.989Z,0.40
2022-11-10T00:56:11.172Z,0.40
2022-11-10T00:58:58.149Z,0.50
2022-11-10T01:01:46.944Z,0.50
2022-11-10T01:04:35.689Z,0.50
2022-11-10T01:07:22.584Z,0.50
2022-11-10T01:10:09.812Z,0.50
2022-11-10T01:12:56.830Z,0.60
2022-11-10T01:15:44.289Z,1.00
2022-11-10T01:18:31.006Z,0.80
2022-11-10T01:21:19.292Z,1.20
2022-11-10T01:24:06.571Z,1.00
2022-11-10T01:26:53.570Z,1.13
2022-11-10T01:29:40.236Z,1.20
2022-11-10T01:32:27.249Z,1.40
2022-11-10T01:35:14.144Z,1.75
2022-11-10T01:38:02.204Z,1.83
2022-11-10T01:40:49.135Z,2.08
2022-11-10T01:43:36.820Z,2.40
2022-11-10T01:46:23.486Z,2.07
2022-11-10T01:49:11.761Z,2.37
2022-11-10T01:52:01.862Z,2.55
2022-11-10T01:54:51.092Z,2.80
2022-11-10T05:36:30.206Z,5.90
2022-11-10T05:39:17.179Z,6.30
2022-11-10T05:42:03.963Z,7.55
2022-11-10T05:44:52.081Z,7.30
2022-11-10T05:47:39.382Z,7.85
2022-11-10T06:12:42.057Z,8.35
2022-11-10T06:15:29.289Z,9.32
2022-11-10T06:18:17.425Z,9.30
2022-11-10T06:21:04.163Z,9.90
2022-11-10T06:23:50.952Z,10.60
2022-11-10T06:26:37.989Z,11.00
2022-11-10T06:29:26.990Z,10.98
2022-11-10T06:32:13.912Z,11.43
2022-11-10T06:35:02.442Z,11.60
2022-11-10T06:37:59.066Z,11.98
2022-11-10T06:43:32.446Z,12.27
2022-11-10T06:46:19.350Z,12.52
2022-11-10T06:49:06.641Z,12.82
2022-11-10T06:51:54.903Z,13.45
2022-11-10T06:54:41.869Z,14.43
2022-11-10T06:57:28.859Z,14.68
2022-11-10T07:00:17.008Z,14.90
2022-11-10T07:03:05.957Z,15.48
2022-11-10T07:05:52.590Z,14.90
2022-11-10T07:08:41.126Z,15.55
2022-11-10T07:11:28.033Z,14.82
2022-11-10T07:14:15.253Z,14.45
2022-11-10T07:17:02.279Z,14.73
2022-11-10T07:19:48.973Z,15.52
2022-11-10T07:22:35.946Z,14.90
2022-11-10T07:25:24.381Z,14.00
2022-11-10T07:28:11.659Z,14.02
2022-11-10T07:30:58.895Z,14.32
2022-11-10T07:33:51.900Z,13.50
2022-11-10T07:36:41.736Z,14.07
2022-11-10T07:39:28.632Z,13.25
2022-11-10T07:42:16.812Z,14.45
2022-11-10T07:45:03.816Z,18.45
2022-11-10T07:47:51.519Z,14.07
2022-11-10T07:50:38.294Z,15.75
2022-11-10T07:53:25.248Z,14.10
2022-11-10T07:56:12.077Z,13.43
2022-11-10T08:18:35.281Z,12.68
2022-11-10T08:21:22.677Z,13.63
2022-11-10T08:24:10.299Z,14.15
2022-11-10T08:26:57.824Z,14.93
2022-11-10T08:29:44.491Z,15.23
2022-11-10T08:32:33.145Z,15.00
2022-11-10T08:35:20.068Z,15.05
2022-11-10T08:38:09.623Z,14.48
2022-11-10T08:40:57.796Z,14.38
2022-11-10T08:43:45.021Z,14.15
2022-11-10T08:46:31.715Z,12.65
2022-11-10T08:49:19.738Z,12.18
2022-11-10T08:52:06.448Z,12.30
2022-11-10T08:54:53.214Z,11.77
2022-11-10T08:57:39.882Z,10.63
2022-11-10T09:00:26.727Z,10.40
2022-11-10T09:03:15.988Z,10.68
2022-11-10T09:06:04.625Z,10.00
2022-11-10T09:08:51.622Z,9.50
2022-11-10T09:11:38.368Z,10.80
2022-11-10T09:14:25.399Z,10.20
2022-11-10T09:17:12.511Z,9.50
2022-11-10T09:19:59.638Z,9.70
2022-11-10T09:22:47.694Z,9.35
2022-11-10T09:25:35.199Z,10.03
2022-11-10T09:28:23.390Z,10.02
2022-11-10T09:31:10.177Z,10.32
2022-11-10T09:33:57.053Z,10.13
2022-11-10T09:36:43.870Z,10.98
2022-11-10T09:39:32.071Z,10.30
2022-11-10T09:42:31.426Z,10.68
2022-11-10T09:45:25.003Z,10.55
2022-11-10T09:48:18.901Z,10.23
2022-11-10T09:51:09.944Z,10.23
2022-11-10T09:53:59.708Z,11.02
2022-11-10T09:56:48.281Z,10.32
2022-11-10T09:59:36.459Z,10.02
2022-11-10T10:02:30.821Z,10.63
2022-11-10T10:05:39.674Z,10.30
2022-11-10T10:08:38.051Z,10.43
2022-11-10T10:11:40.020Z,9.50
2022-11-10T10:14:57.641Z,10.27
2022-11-10T10:18:01.062Z,10.10
2022-11-10T10:21:01.980Z,9.85
2022-11-10T10:24:11.523Z,9.53
2022-11-10T10:27:01.973Z,10.18
2022-11-10T10:29:50.874Z,9.93
2022-11-10T10:32:37.978Z,10.40
2022-11-10T10:35:24.804Z,10.40
2022-11-10T10:38:21.878Z,9.88
2022-11-10T10:41:20.923Z,9.82
2022-11-10T10:44:13.644Z,9.93
2022-11-10T10:47:03.143Z,9.83
2022-11-10T10:49:49.894Z,10.67
2022-11-10T10:52:36.921Z,10.10
2022-11-10T10:55:30.610Z,10.30
2022-11-10T10:58:24.405Z,10.13
2022-11-10T11:01:22.663Z,12.25
2022-11-10T11:04:28.620Z,9.95
2022-11-10T11:07:23.167Z,9.68
2022-11-10T11:10:20.959Z,10.30
2022-11-10T11:13:16.276Z,9.80
2022-11-10T11:16:05.253Z,9.52
2022-11-10T11:18:52.374Z,9.45
2022-11-10T11:21:52.910Z,9.75
2022-11-10T11:24:44.805Z,9.30
2022-11-10T11:27:39.292Z,8.57
2022-11-10T11:30:29.803Z,8.90
2022-11-10T11:33:39.362Z,9.02
2022-11-10T11:36:33.657Z,9.07
2022-11-10T11:39:39.447Z,8.85
2022-11-10T11:42:39.849Z,8.63
2022-11-10T11:45:34.730Z,8.43
2022-11-10T11:48:52.205Z,9.00
2022-11-10T11:51:45.489Z,8.43
2022-11-10T11:54:48.245Z,8.18
2022-11-10T11:57:45.910Z,8.07
2022-11-10T12:00:43.422Z,8.57
2022-11-10T12:03:48.917Z,7.95
2022-11-10T12:06:49.687Z,8.68
2022-11-10T12:09:44.921Z,8.20
2022-11-10T12:13:11.000Z,7.40
2022-11-10T12:16:04.066Z,7.17
2022-11-10T12:19:08.784Z,7.97
2022-11-10T12:22:02.203Z,6.75
2022-11-10T12:24:59.331Z,7.47
2022-11-10T12:27:51.069Z,7.35
2022-11-10T12:30:39.625Z,7.35
2022-11-10T12:33:36.556Z,6.90
2022-11-10T12:36:25.484Z,6.75
2022-11-10T12:39:19.895Z,6.88
2022-11-10T12:42:16.112Z,6.70
2022-11-10T12:45:05.907Z,7.10
2022-11-10T12:47:56.035Z,7.93
2022-11-10T12:50:50.198Z,6.72
2022-11-10T12:53:40.216Z,6.20
2022-11-10T12:56:34.210Z,6.82
2022-11-10T12:59:30.390Z,7.20
2022-11-10T13:02:27.210Z,6.30
2022-11-10T13:05:38.680Z,5.80
2022-11-10T13:08:30.554Z,6.18
2022-11-10T13:11:29.984Z,6.47
2022-11-10T13:14:27.176Z,5.70
2022-11-10T13:17:55.130Z,6.15
2022-11-10T13:20:53.522Z,6.32
2022-11-10T13:24:28.437Z,5.70
2022-11-10T13:27:52.331Z,5.40
2022-11-10T13:30:43.638Z,5.50
2022-11-10T13:33:40.393Z,5.55
2022-11-10T13:36:40.401Z,5.87
2022-11-10T13:39:30.291Z,5.43
2022-11-10T13:42:20.311Z,5.50
2022-11-10T13:45:29.826Z,5.63
2022-11-10T13:48:31.136Z,5.50
2022-11-10T13:51:28.979Z,6.10
2022-11-10T13:54:34.224Z,5.22
2022-11-10T13:57:31.517Z,5.70
2022-11-10T14:00:28.305Z,5.30
2022-11-10T14:03:48.753Z,5.03
2022-11-10T14:06:50.162Z,5.20
2022-11-10T14:09:40.631Z,5.07
2022-11-10T14:12:33.033Z,5.43
2022-11-10T14:15:23.394Z,5.20
2022-11-10T14:18:19.690Z,5.10
2022-11-10T14:21:08.157Z,5.32
2022-11-10T14:24:00.194Z,5.20
2022-11-10T14:26:51.944Z,5.35
2022-11-10T14:29:40.341Z,5.03
2022-11-10T14:32:27.715Z,5.47
2022-11-10T14:35:21.081Z,5.10
2022-11-10T14:38:20.588Z,4.95
2022-11-10T14:41:19.153Z,5.25
2022-11-10T14:44:08.070Z,4.88
2022-11-10T14:46:55.900Z,5.03
2022-11-10T14:49:43.916Z,4.80
2022-11-10T14:52:31.162Z,4.82
2022-11-10T14:55:21.345Z,4.70
2022-11-10T14:58:17.370Z,5.18
2022-11-10T15:01:05.915Z,4.93
2022-11-10T15:03:53.147Z,4.73
2022-11-10T15:06:44.503Z,4.80
2022-11-10T15:09:34.497Z,4.78
2022-11-10T15:12:27.834Z,4.90
2022-11-10T15:15:24.149Z,5.00
2022-11-10T15:18:26.587Z,4.90
2022-11-10T15:21:14.765Z,4.45
2022-11-10T15:24:05.761Z,4.75
2022-11-10T15:26:52.629Z,5.05
2022-11-10T15:29:39.238Z,4.70
2022-11-10T15:32:35.830Z,4.80
2022-11-10T15:35:30.024Z,4.70
2022-11-10T15:38:32.150Z,4.70
2022-11-10T15:41:27.616Z,5.85
2022-11-10T15:44:16.234Z,4.85
2022-11-10T15:47:03.164Z,5.53
2022-11-10T15:49:51.330Z,4.63
2022-11-10T15:52:45.485Z,5.33
2022-11-10T15:55:35.541Z,4.88
2022-11-10T15:58:24.897Z,4.50
2022-11-10T16:01:15.567Z,4.32
2022-11-10T16:04:02.432Z,4.10
2022-11-10T16:06:50.919Z,3.92
2022-11-10T16:09:37.625Z,4.30
2022-11-10T16:12:25.011Z,4.07
2022-11-10T16:15:19.395Z,5.32
2022-11-10T16:18:10.142Z,4.90
2022-11-10T16:20:57.579Z,3.50
2022-11-10T16:23:46.424Z,3.53
2022-11-10T16:26:35.438Z,3.78
2022-11-10T16:29:22.393Z,3.53
2022-11-10T16:32:10.930Z,4.30
2022-11-10T16:34:57.996Z,4.15
2022-11-10T16:37:45.148Z,3.90
2022-11-10T16:40:33.375Z,4.55
2022-11-10T16:43:20.652Z,4.35
2022-11-10T16:46:18.572Z,3.88
2022-11-10T16:49:08.121Z,3.20
2022-11-10T16:51:55.121Z,3.40
2022-11-10T16:54:41.903Z,3.45
2022-11-10T16:57:29.964Z,3.50
2022-11-10T17:00:18.207Z,3.28
2022-11-10T17:03:08.906Z,3.00
2022-11-10T17:05:56.102Z,3.50
2022-11-10T17:08:43.501Z,3.50
2022-11-10T17:11:30.429Z,3.42
2022-11-10T17:14:19.038Z,3.80
2022-11-10T17:17:05.832Z,3.17
2022-11-10T17:19:53.093Z,3.30
2022-11-10T17:22:40.223Z,4.10
2022-11-10T17:25:29.784Z,3.10
2022-11-10T17:28:18.013Z,3.15
2022-11-10T17:31:09.237Z,3.05
2022-11-10T17:33:56.074Z,2.53
2022-11-10T17:36:43.153Z,2.80
2022-11-10T17:39:30.018Z,2.83
2022-11-10T17:42:17.147Z,2.70
2022-11-10T17:45:04.119Z,2.92
2022-11-10T17:47:52.975Z,2.50
2022-11-10T17:50:41.156Z,3.00
2022-11-10T17:53:28.842Z,3.30
2022-11-10T17:56:15.719Z,3.13
2022-11-10T17:59:02.634Z,2.65
2022-11-10T18:01:49.334Z,2.50
2022-11-10T18:04:37.959Z,2.80
2022-11-10T18:07:25.073Z,6.40
2022-11-10T18:10:14.528Z,3.88
2022-11-10T18:13:01.717Z,2.70
2022-11-10T18:15:49.405Z,2.60
2022-11-10T18:18:36.775Z,2.30
2022-11-10T18:21:24.927Z,2.67
2022-11-10T18:24:11.854Z,2.40
2022-11-10T18:26:58.702Z,2.83
2022-11-10T18:29:45.579Z,2.42
2022-11-10T18:32:32.555Z,2.60
2022-11-10T18:35:19.328Z,2.67
2022-11-10T18:38:08.866Z,2.27
2022-11-10T18:40:55.921Z,2.22
2022-11-10T18:43:42.664Z,2.70
2022-11-10T18:46:29.388Z,2.30
2022-11-10T18:49:16.502Z,2.33
2022-11-10T18:52:03.707Z,2.40
2022-11-10T18:54:52.158Z,2.40
2022-11-10T18:57:39.485Z,2.47
2022-11-10T19:00:26.603Z,3.10
2022-11-10T19:03:14.236Z,3.10
2022-11-10T19:06:01.179Z,2.50
2022-11-10T19:08:48.723Z,2.58
2022-11-10T19:11:37.102Z,2.30
2022-11-10T19:14:24.158Z,2.42
2022-11-10T19:17:11.992Z,3.85
2022-11-10T19:19:58.894Z,2.60
2022-11-10T19:22:45.828Z,2.42
2022-11-10T19:25:33.329Z,2.50
2022-11-10T19:28:21.623Z,2.45
2022-11-10T19:31:11.337Z,2.20
2022-11-10T19:33:58.977Z,2.45
2022-11-10T19:36:46.324Z,2.55
2022-11-10T19:39:33.444Z,2.22
2022-11-10T19:42:20.322Z,2.50
2022-11-10T19:45:10.152Z,3.58
2022-11-10T19:47:59.772Z,2.63
2022-11-10T19:50:53.155Z,2.25
2022-11-10T19:53:40.464Z,2.10
2022-11-10T19:56:31.437Z,2.38
2022-11-10T19:59:21.178Z,2.10
2022-11-10T20:02:13.401Z,2.28
2022-11-10T20:05:16.346Z,2.15
2022-11-10T20:08:12.181Z,2.25
2022-11-10T20:11:04.634Z,2.17
2022-11-10T20:13:54.941Z,2.23
2022-11-10T20:16:42.255Z,2.40
2022-11-10T20:19:30.502Z,2.35
2022-11-10T20:22:17.399Z,2.40
2022-11-10T20:25:04.320Z,2.17
2022-11-10T20:27:51.023Z,2.47
2022-11-10T20:30:42.898Z,2.47
2022-11-10T20:33:30.333Z,2.15
2022-11-10T20:36:21.078Z,2.30
2022-11-10T20:39:07.889Z,2.45
2022-11-10T20:41:54.523Z,2.70
2022-11-10T20:44:41.653Z,2.58
2022-11-10T20:47:30.046Z,3.30
2022-11-10T20:50:20.479Z,2.40
2022-11-10T20:53:12.553Z,2.47
2022-11-10T20:56:01.981Z,2.95
2022-11-10T20:58:52.388Z,2.45
2022-11-10T21:01:39.088Z,2.70
2022-11-10T21:04:25.917Z,2.40
2022-11-10T21:07:12.909Z,2.10
2022-11-10T21:10:01.493Z,2.40
2022-11-10T21:12:50.798Z,2.10
2022-11-10T21:15:39.647Z,1.98
2022-11-10T21:18:28.159Z,2.58
2022-11-10T21:21:22.341Z,2.55
2022-11-10T21:24:10.180Z,2.70
2022-11-10T21:26:58.971Z,2.35
2022-11-10T21:29:46.493Z,2.00
2022-11-10T21:32:33.513Z,2.15
2022-11-10T21:35:20.877Z,1.90
2022-11-10T21:38:08.322Z,2.30
2022-11-10T21:40:55.405Z,2.30
2022-11-10T21:43:43.786Z,1.95
2022-11-10T21:46:30.399Z,3.05
2022-11-10T21:49:17.444Z,2.00
2022-11-10T21:52:04.379Z,3.67
2022-11-10T21:54:51.151Z,2.10
2022-11-10T21:57:37.836Z,2.13
2022-11-10T22:00:27.717Z,2.20
2022-11-10T22:03:14.755Z,2.20
2022-11-10T22:06:04.968Z,1.83
2022-11-10T22:08:53.126Z,1.90
2022-11-10T22:11:57.690Z,1.60
2022-11-10T22:15:12.118Z,1.95
2022-11-10T22:18:18.546Z,1.85
2022-11-10T22:21:06.110Z,2.08
2022-11-10T22:24:10.237Z,1.80
2022-11-10T22:26:58.163Z,1.63
2022-11-10T22:29:45.192Z,1.70
2022-11-10T22:32:32.030Z,1.73
2022-11-10T22:35:34.215Z,1.85
2022-11-10T22:38:21.216Z,1.95
2022-11-10T22:41:29.161Z,1.73
2022-11-10T22:44:17.487Z,2.45
2022-11-10T22:47:05.660Z,1.48
2022-11-10T22:49:52.398Z,1.90
2022-11-10T22:52:40.641Z,1.60
2022-11-10T22:55:27.856Z,1.73
2022-11-10T22:58:14.842Z,1.90
2022-11-10T23:01:06.337Z,1.50
2022-11-10T23:03:53.376Z,1.40
2022-11-10T23:06:40.581Z,1.77
2022-11-10T23:09:29.369Z,1.90
2022-11-10T23:12:17.289Z,1.70
2022-11-10T23:15:04.081Z,1.75
2022-11-10T23:17:51.257Z,1.80
2022-11-10T23:20:38.418Z,1.70
2022-11-10T23:23:25.740Z,2.20
2022-11-10T23:26:16.506Z,2.58
2022-11-10T23:29:03.623Z,1.90
2022-11-10T23:31:50.494Z,2.00
2022-11-10T23:34:37.455Z,1.70
2022-11-10T23:37:24.268Z,1.88
2022-11-10T23:40:12.021Z,2.53
2022-11-10T23:43:00.414Z,2.15
2022-11-10T23:46:05.923Z,2.20
2022-11-10T23:48:54.262Z,2.50
2022-11-10T23:51:41.025Z,2.78
2022-11-10T23:54:27.808Z,3.10
2022-11-10T23:57:14.611Z,3.33
